Ankara, Turkey

12:20 PM +03 on July 26, 2017 (GMT +0300)
Alacaatli | | Change Station

Elev 3100 ft 39.85 °N, 32.66 °E | Updated 5 seconds ago

Clear
Clear
93.2 °F
Feels Like 90 °F
N
5.8
Wind Variable Wind from West
Gusts 5.8 mph

Today
High -- | Low -- °F
--% Chance of Precip.
Yesterday
High -- | Low -- °F
Precip. -- in
Pressure 29.83 in
Visibility 6.2 miles
Clouds Few 4000 ft
Heat Index 90 °F
Dew Point 49 °F
Humidity 22%
Rainfall 0.00 in
Snow Depth Not available.
5:41 AM 8:08 PM
Waxing Crescent, 12% visible
METAR LTAC 260850Z 22004KT 9999 FEW040 32/04 Q1010 NOSIG RMK RWY21L VRB05KT RWY03L VRB05KT RWY21R 16007KT 110V230
Pressure 29.83 in
Visibility 6.2 miles
Clouds Few 4000 ft
Heat Index 90 °F
Dew Point 49 °F
Humidity 22%
Rainfall 0.00 in
Snow Depth Not available.
5:41 AM 8:08 PM
Waxing Crescent, 12% visible
METAR LTAC 260850Z 22004KT 9999 FEW040 32/04 Q1010 NOSIG RMK RWY21L VRB05KT RWY03L VRB05KT RWY21R 16007KT 110V230

Get Severe Weather Alerts

Thanks for signing up!

Be on the lookout for a verification email in your inbox.

You'll start receiving the daily forecast at 6 AM.

×

10-Day Weather Forecast

×

Almanac

Astronomy

Jul. 26, 2017 Rise Set
Actual Time
Civil Twilight
Nautical Twilight
Astronomical Twilight
Moon
Length of Visible Light
Length of Day
Tomorrow will be .
, % of the Moon is Illuminated

Today's Extremes

Country Highs Country Lows

Community

WunderPhotos

Category 6

Welcome to Category 6. This is the collective home for Weather Underground's featured writeups by Dr. Jeff Masters (right), Bob Henson (left), Chris Burt, and other regular contributors.

Nearby

Air Quality

  Air Quality AQ Index Pollutant
Not available.

Snow Depth

Station Depth Elevation

Earthquake Activity

City Distance Mag. Time & Date
Minimum magnitude displayed is 2.5.

Coastal Water Temperatures

Place Temperature

Stations

Nearby Weather Stations

Station Location Temp. Windchill Dew Point Humidity Wind Precip. Elev Updated Type